EST,Max TemperatureF,Mean TemperatureF,Min TemperatureF,Max Dew PointF,MeanDew PointF,Min DewpointF,Max Humidity, Mean Humidity, Min Humidity, Max Sea Level PressureIn, Mean Sea Level PressureIn, Min Sea Level PressureIn, Max VisibilityMiles, Mean VisibilityMiles, Min VisibilityMiles, Max Wind SpeedMPH, Mean Wind SpeedMPH, Max Gust SpeedMPH,PrecipitationIn, CloudCover, Events, WindDirDegrees
2013-2-1,39,31,23,25,8,0,57,39,25,30.33,30.16,29.84,10,10,10,18,12,28,0.00,1,,311
2013-2-2,41,31,21,33,16,8,83,53,29,30.35,30.18,29.99,10,10,10,13,4,20,0.00,4,Rain,203
2013-2-3,48,41,33,32,24,17,89,55,39,29.98,29.92,29.84,10,10,10,17,9,30,0.00,3,,272
2013-2-4,50,39,28,25,20,17,64,49,32,30.09,30.01,29.95,10,10,10,10,5,16,0.00,1,,222
2013-2-5,61,46,30,34,28,25,82,53,32,29.94,29.90,29.85,10,10,10,12,3,17,0.00,3,,290
2013-2-6,61,48,36,32,24,14,73,41,16,30.20,30.08,29.94,10,10,10,9,5,,0.00,0,,318
2013-2-7,42,40,37,38,34,23,100,83,51,30.28,30.15,30.00,10,5,1,9,5,,0.59,6,Rain,24
2013-2-8,57,47,37,43,35,25,97,74,37,30.07,29.93,29.85,10,9,5,18,5,28,0.03,5,Rain,308
2013-2-9,57,44,32,26,19,13,73,42,19,30.30,30.21,30.06,10,10,10,8,3,,0.00,0,,286
2013-2-10,53,42,32,39,28,20,93,61,29,30.40,30.29,30.14,10,10,5,7,1,,0.18,3,Rain,287
2013-2-11,57,49,41,54,45,28,97,89,41,30.14,30.02,29.93,10,6,1,14,3,20,0.06,6,Rain,226
2013-2-12,57,50,44,38,26,21,76,41,26,30.07,29.98,29.90,10,10,10,8,4,,0.01,2,Rain,290
2013-2-13,46,42,37,43,40,28,97,88,63,29.85,29.74,29.62,10,5,1,8,2,,0.27,7,Rain,254
2013-2-14,51,40,28,30,28,25,88,63,43,30.03,29.96,29.86,10,10,9,9,3,16,0.00,0,,215
2013-2-15,60,45,30,36,30,27,89,61,30,30.06,29.98,29.89,10,10,8,12,4,21,0.00,3,Rain,302
2013-2-16,39,34,28,30,24,10,93,66,40,29.96,29.88,29.82,10,8,0,15,3,23,0.02,7,Fog-Snow,344
2013-2-17,39,32,25,9,5,2,49,34,24,30.21,30.09,29.97,10,10,10,18,11,30,0.00,0,,304
2013-2-18,51,36,21,24,18,7,72,43,29,30.33,30.25,30.16,10,10,10,9,2,17,0.00,0,,197
2013-2-19,51,43,35,41,30,11,93,67,27,30.15,29.97,29.82,10,9,5,14,7,21,0.06,5,Rain,216
2013-2-20,53,42,30,10,5,-1,42,24,11,30.09,30.03,29.98,10,10,10,13,7,21,0.00,0,,299
2013-2-21,55,40,25,32,16,7,75,39,20,30.23,30.12,30.06,10,10,10,5,1,,0.06,1,Rain,90
2013-2-22,39,37,35,36,35,33,100,93,82,30.28,30.18,30.09,9,3,1,7,3,,0.42,8,Rain,53
2013-2-23,48,42,35,43,37,33,100,90,77,30.12,29.95,29.81,10,6,2,7,2,,0.21,8,Rain,26
2013-2-24,62,50,39,43,32,17,100,64,18,29.99,29.89,29.81,10,6,0,12,4,16,0.00,1,Fog,312
2013-2-25,44,39,34,26,24,22,73,57,47,30.16,30.07,29.98,10,10,10,10,5,,0.00,2,,61
2013-2-26,37,34,32,36,33,21,100,91,52,30.08,29.77,29.57,10,4,0,14,8,20,1.34,8,Fog-Rain,25
2013-2-27,55,44,34,38,35,30,100,81,45,29.77,29.69,29.63,10,5,0,13,4,20,0.00,5,Fog,238
2013-2-28,46,40,34,28,24,20,65,54,40,29.86,29.77,29.68,10,10,10,15,7,22,0.00,5,,291